Auburndale, Florida
Current Conditions -  °F | °C
As of 12:53 AM on Tuesday 21 Oct 2014 (Local Time) from KGIF Reporting Station
Clear Clear  
Wind Chill: 73°   Ceiling: Unl
Heat Index: 73°   Visibility: 10mi
Dew Point: 67°   Wind: 5mph
Humidity: 81%   Direction: 120°ESE
Pressure: 29.98"   Gusts: NA
Location:  28.06°N, 81.78°W
Report Text: KGIF 210453Z AUTO 12004KT 10SM CLR 23/19 A2998 RMK AO2 SLP149 T02280194 403000178
Loading
Personal Weather Stations






























Interactive Weather Map New forecast layout! Learn more

10-Day Weather Forecast

Advertisements
Track Severe Weather on mobile